createdAt,value
2022-08-22T02:29:17.012Z,43.69
2022-08-22T02:31:57.422Z,43.81
2022-08-22T02:35:11.466Z,43.80
2022-08-22T04:23:21.539Z,42.26
2022-08-22T04:26:54.370Z,42.23
2022-08-22T04:29:53.408Z,42.22
2022-08-22T16:04:37.463Z,30.60
2022-08-22T16:12:34.914Z,31.22
2022-08-22T18:03:52.895Z,34.34
2022-08-22T18:06:30.182Z,34.06
2022-08-22T18:09:16.814Z,33.90
2022-08-22T18:11:54.782Z,34.00
2022-08-22T18:15:00.187Z,34.46
2022-08-22T18:17:47.470Z,34.37
2022-08-22T18:20:26.947Z,34.57
2022-08-22T18:23:39.048Z,34.98
2022-08-22T18:27:04.267Z,34.90
2022-08-22T18:29:52.251Z,35.08
2022-08-22T18:40:07.799Z,35.31
2022-08-22T18:43:09.024Z,35.72
2022-08-22T18:51:26.473Z,35.88
2022-08-22T18:54:26.954Z,35.91
2022-08-22T19:01:24.629Z,36.26
2022-08-22T19:04:22.206Z,36.57
2022-08-22T19:06:53.050Z,36.21
2022-08-22T19:09:38.777Z,36.72
2022-08-22T19:12:36.452Z,36.92
2022-08-22T19:15:43.899Z,37.24
2022-08-22T19:18:33.355Z,37.23
2022-08-22T19:21:45.620Z,37.67
2022-08-22T19:24:37.036Z,37.56
2022-08-22T19:27:07.383Z,37.30
2022-08-22T19:29:34.720Z,37.15
2022-08-22T19:32:05.964Z,37.47
2022-08-22T19:34:47.930Z,37.65
2022-08-22T19:37:32.161Z,37.86
2022-08-22T19:40:32.679Z,38.10
2022-08-22T19:43:41.934Z,38.34
2022-08-22T19:47:04.856Z,38.20
2022-08-22T19:49:32.157Z,38.79
2022-08-22T19:52:20.388Z,39.02
2022-08-22T19:55:11.319Z,38.81
2022-08-22T19:57:57.419Z,38.96
2022-08-22T20:00:50.290Z,39.36
2022-08-22T20:03:37.675Z,39.19
2022-08-22T20:06:33.534Z,39.09
2022-08-22T20:09:07.534Z,39.20
2022-08-22T20:11:50.038Z,39.79
2022-08-22T20:14:31.058Z,39.69
2022-08-22T20:17:02.113Z,39.55
2022-08-22T20:19:39.388Z,39.74
2022-08-22T20:22:30.309Z,39.61
2022-08-22T20:24:57.507Z,40.00
2022-08-22T20:27:36.328Z,40.03
2022-08-22T20:30:16.265Z,40.27
2022-08-22T20:32:51.643Z,40.14
2022-08-22T20:35:26.969Z,40.31
2022-08-22T20:38:06.666Z,40.64
2022-08-22T20:40:59.441Z,40.68
2022-08-22T20:43:36.860Z,40.02
2022-08-22T20:46:25.339Z,40.63
2022-08-22T20:49:01.132Z,40.61
2022-08-22T20:51:32.491Z,40.59
2022-08-22T20:54:15.582Z,40.67
2022-08-22T20:56:58.238Z,41.05
2022-08-22T20:59:36.258Z,41.14
2022-08-22T21:02:24.609Z,41.07
2022-08-22T21:04:57.174Z,41.15
2022-08-22T21:07:31.351Z,40.90
2022-08-22T21:10:25.281Z,41.23
2022-08-22T21:13:05.236Z,41.63
2022-08-22T21:15:39.607Z,41.04
2022-08-22T21:18:08.072Z,41.54
2022-08-22T21:20:37.783Z,41.55
2022-08-22T21:23:14.668Z,41.86
2022-08-22T21:26:12.720Z,42.33
2022-08-22T21:28:57.000Z,41.99
2022-08-22T21:31:28.480Z,41.95
2022-08-22T21:33:57.185Z,42.00
2022-08-22T21:36:32.015Z,42.15
2022-08-22T21:39:04.375Z,41.91
2022-08-22T21:41:49.603Z,42.36
2022-08-22T21:48:38.058Z,43.04
2022-08-22T21:51:23.510Z,43.21
2022-08-22T21:53:53.409Z,42.84
2022-08-22T21:56:38.164Z,43.01
2022-08-22T21:59:50.607Z,43.32
2022-08-22T22:02:49.879Z,43.45
2022-08-22T22:06:07.796Z,43.82
2022-08-22T22:08:35.216Z,43.55
2022-08-22T22:11:08.708Z,43.28
2022-08-22T22:13:36.159Z,43.35
2022-08-22T22:16:07.043Z,43.49
2022-08-22T22:18:36.128Z,43.74
2022-08-22T22:21:04.186Z,43.62
2022-08-22T22:23:31.651Z,43.66
2022-08-22T22:26:03.173Z,43.37
2022-08-22T22:28:38.206Z,43.37
2022-08-22T22:31:05.816Z,43.42
2022-08-22T22:33:37.007Z,43.84
2022-08-22T22:36:09.895Z,44.20
2022-08-22T22:38:39.516Z,43.63
2022-08-22T22:41:07.752Z,43.46
2022-08-22T22:43:35.070Z,43.74
2022-08-22T22:46:04.769Z,43.80
2022-08-22T22:48:33.037Z,43.43
2022-08-22T22:51:06.272Z,43.59
2022-08-22T22:53:38.323Z,43.77
2022-08-22T22:56:09.233Z,43.90
2022-08-22T22:58:38.407Z,43.92
2022-08-22T23:01:10.324Z,43.91
2022-08-22T23:03:38.074Z,44.02
2022-08-22T23:06:14.979Z,43.95
2022-08-22T23:08:42.605Z,43.80
2022-08-22T23:11:17.945Z,43.99
2022-08-22T23:13:45.711Z,43.86
2022-08-22T23:16:16.539Z,44.52
2022-08-22T23:18:44.728Z,44.32
2022-08-22T23:21:30.113Z,44.93
2022-08-22T23:23:59.456Z,44.79
2022-08-22T23:26:29.042Z,44.79
2022-08-22T23:28:57.471Z,44.98
2022-08-22T23:31:35.584Z,45.00
2022-08-22T23:34:25.439Z,45.53
2022-08-22T23:36:56.190Z,44.71
2022-08-22T23:39:24.983Z,45.17
2022-08-22T23:41:52.866Z,44.66
2022-08-22T23:44:22.771Z,44.89
2022-08-22T23:46:51.098Z,44.90
2022-08-22T23:49:19.707Z,44.84
2022-08-22T23:51:48.727Z,44.77
2022-08-22T23:54:16.202Z,45.09
2022-08-22T23:56:50.539Z,46.31
2022-08-22T23:59:23.628Z,45.65
